< < Back
Terminal Aerodrome Forecast


Current Version              Previous Versions:   1  2  3  4  5  6  7  8  9  

Terminal Aerodrome Forecast

498
FTUS42 KFFC 031136
TAFMCN
TAF
KMCN 031136Z 0312/0412 24008KT P6SM FEW010 BKN040
     FM031400 25012KT P6SM BKN025 BKN250
     FM031600 26012G18KT P6SM VCSH SCT040 BKN100
      TEMPO 0318/0322 4SM TSRA BKN025CB
     FM040100 27008KT P6SM SCT020 BKN040
     FM040600 26009KT P6SM OVC060=



Latest METAR

413
SAUS80 KWBC 032300 RRA
MTRMCN
METAR KMCN 032253Z 27010G17KT 10SM CLR 32/18 A2998 RMK AO2 SLP148
T03170183


USA.gov is the U.S. government's official web portal to all federal, state and local government web resources and services.